Řízení letového provozu České republiky
Letiste: LKPR Aktualizace: 27.05.2018 00:31:06  UTC
 METAR LKPR 27.05. 00:30 ...
METAR LKPR 270030Z VRB02KT CAVOK 14/10 Q1021 NOSIG RMK REG QNH 1019=
 TAF LKPR 26.05. 23:00 ...
TAF LKPR 262300Z 2700/2806 11005KT CAVOK      TEMPO 2707/2718 14015KT 9999 SCT060TCU=